sensor_id;sensor_type;location;lat;lon;timestamp;temperature;humidity
57078;DHT22;75967;50.970;4.574;2024-02-14T00:01:01;9.90;92.20
57078;DHT22;75967;50.970;4.574;2024-02-14T00:03:26;10.00;92.10
57078;DHT22;75967;50.970;4.574;2024-02-14T00:05:52;10.00;91.90
57078;DHT22;75967;50.970;4.574;2024-02-14T00:08:18;10.00;91.90
57078;DHT22;75967;50.970;4.574;2024-02-14T00:10:44;10.00;92.10
57078;DHT22;75967;50.970;4.574;2024-02-14T00:13:10;10.00;92.00
57078;DHT22;75967;50.970;4.574;2024-02-14T00:15:36;10.10;91.90
57078;DHT22;75967;50.970;4.574;2024-02-14T00:18:02;10.10;91.90
57078;DHT22;75967;50.970;4.574;2024-02-14T00:20:28;10.10;91.90
57078;DHT22;75967;50.970;4.574;2024-02-14T00:22:54;10.00;92.00
57078;DHT22;75967;50.970;4.574;2024-02-14T00:25:19;10.10;92.00
57078;DHT22;75967;50.970;4.574;2024-02-14T00:27:46;10.10;91.90
57078;DHT22;75967;50.970;4.574;2024-02-14T00:30:11;10.20;91.70
57078;DHT22;75967;50.970;4.574;2024-02-14T00:32:37;10.20;91.50
57078;DHT22;75967;50.970;4.574;2024-02-14T00:35:03;10.20;91.70
57078;DHT22;75967;50.970;4.574;2024-02-14T00:37:29;10.20;91.50
57078;DHT22;75967;50.970;4.574;2024-02-14T00:39:55;10.30;91.50
57078;DHT22;75967;50.970;4.574;2024-02-14T00:42:22;10.30;91.60
57078;DHT22;75967;50.970;4.574;2024-02-14T00:44:48;10.40;91.40
57078;DHT22;75967;50.970;4.574;2024-02-14T00:47:13;10.40;91.30
57078;DHT22;75967;50.970;4.574;2024-02-14T00:49:39;10.30;91.30
57078;DHT22;75967;50.970;4.574;2024-02-14T00:52:05;10.20;91.60
57078;DHT22;75967;50.970;4.574;2024-02-14T00:54:32;10.30;91.60
57078;DHT22;75967;50.970;4.574;2024-02-14T00:56:57;10.20;91.60
57078;DHT22;75967;50.970;4.574;2024-02-14T00:59:23;10.30;91.60
57078;DHT22;75967;50.970;4.574;2024-02-14T01:01:50;10.20;91.80
57078;DHT22;75967;50.970;4.574;2024-02-14T01:04:16;10.20;91.80
57078;DHT22;75967;50.970;4.574;2024-02-14T01:06:42;10.20;91.80
57078;DHT22;75967;50.970;4.574;2024-02-14T01:09:07;10.30;91.80
57078;DHT22;75967;50.970;4.574;2024-02-14T01:11:34;10.40;91.40
57078;DHT22;75967;50.970;4.574;2024-02-14T01:13:59;10.40;91.50
57078;DHT22;75967;50.970;4.574;2024-02-14T01:16:25;10.40;91.80
57078;DHT22;75967;50.970;4.574;2024-02-14T01:18:51;10.40;92.00
57078;DHT22;75967;50.970;4.574;2024-02-14T01:21:17;10.30;92.30
57078;DHT22;75967;50.970;4.574;2024-02-14T01:23:42;10.30;92.50
57078;DHT22;75967;50.970;4.574;2024-02-14T01:26:08;10.20;92.70
57078;DHT22;75967;50.970;4.574;2024-02-14T01:28:34;10.20;92.70
57078;DHT22;75967;50.970;4.574;2024-02-14T01:30:59;10.20;92.70
57078;DHT22;75967;50.970;4.574;2024-02-14T01:33:25;10.20;92.50
57078;DHT22;75967;50.970;4.574;2024-02-14T01:35:51;10.30;92.20
57078;DHT22;75967;50.970;4.574;2024-02-14T01:38:16;10.30;92.20
57078;DHT22;75967;50.970;4.574;2024-02-14T01:40:42;10.30;92.30
57078;DHT22;75967;50.970;4.574;2024-02-14T01:43:10;10.40;92.20
57078;DHT22;75967;50.970;4.574;2024-02-14T01:45:37;10.30;92.40
57078;DHT22;75967;50.970;4.574;2024-02-14T01:48:04;10.30;92.50
57078;DHT22;75967;50.970;4.574;2024-02-14T01:50:32;10.20;92.70
57078;DHT22;75967;50.970;4.574;2024-02-14T01:52:58;10.20;92.80
57078;DHT22;75967;50.970;4.574;2024-02-14T01:55:29;10.30;92.50
57078;DHT22;75967;50.970;4.574;2024-02-14T01:57:55;10.30;92.80
57078;DHT22;75967;50.970;4.574;2024-02-14T02:00:21;10.20;92.90
57078;DHT22;75967;50.970;4.574;2024-02-14T02:02:47;10.10;93.40
57078;DHT22;75967;50.970;4.574;2024-02-14T02:05:13;10.00;93.70
57078;DHT22;75967;50.970;4.574;2024-02-14T02:07:39;10.00;93.80
57078;DHT22;75967;50.970;4.574;2024-02-14T02:10:09;10.00;93.70
57078;DHT22;75967;50.970;4.574;2024-02-14T02:12:36;10.00;93.70
57078;DHT22;75967;50.970;4.574;2024-02-14T02:15:05;10.10;93.60
57078;DHT22;75967;50.970;4.574;2024-02-14T02:17:32;10.00;93.80
57078;DHT22;75967;50.970;4.574;2024-02-14T02:20:00;10.10;93.80
57078;DHT22;75967;50.970;4.574;2024-02-14T02:22:26;9.90;93.90
57078;DHT22;75967;50.970;4.574;2024-02-14T02:24:51;10.00;93.70
57078;DHT22;75967;50.970;4.574;2024-02-14T02:27:17;10.10;93.50
57078;DHT22;75967;50.970;4.574;2024-02-14T02:29:43;10.10;93.60
57078;DHT22;75967;50.970;4.574;2024-02-14T02:32:08;10.10;93.50
57078;DHT22;75967;50.970;4.574;2024-02-14T02:34:35;10.10;93.40
57078;DHT22;75967;50.970;4.574;2024-02-14T02:37:04;10.10;93.60
57078;DHT22;75967;50.970;4.574;2024-02-14T02:39:33;10.20;93.30
57078;DHT22;75967;50.970;4.574;2024-02-14T02:41:59;10.30;93.30
57078;DHT22;75967;50.970;4.574;2024-02-14T02:44:25;10.30;93.20
57078;DHT22;75967;50.970;4.574;2024-02-14T02:46:51;10.20;93.50
57078;DHT22;75967;50.970;4.574;2024-02-14T02:49:16;10.30;93.20
57078;DHT22;75967;50.970;4.574;2024-02-14T02:51:42;10.30;93.20
57078;DHT22;75967;50.970;4.574;2024-02-14T02:54:07;10.30;93.20
57078;DHT22;75967;50.970;4.574;2024-02-14T02:56:34;10.30;93.20
57078;DHT22;75967;50.970;4.574;2024-02-14T02:58:59;10.30;93.50
57078;DHT22;75967;50.970;4.574;2024-02-14T03:01:27;10.30;94.10
57078;DHT22;75967;50.970;4.574;2024-02-14T03:03:53;10.20;94.50
57078;DHT22;75967;50.970;4.574;2024-02-14T03:06:19;10.10;95.00
57078;DHT22;75967;50.970;4.574;2024-02-14T03:08:45;10.10;95.20
57078;DHT22;75967;50.970;4.574;2024-02-14T03:11:11;10.10;95.20
57078;DHT22;75967;50.970;4.574;2024-02-14T03:13:37;10.10;95.20
57078;DHT22;75967;50.970;4.574;2024-02-14T03:16:06;10.10;95.50
57078;DHT22;75967;50.970;4.574;2024-02-14T03:18:32;10.10;95.30
57078;DHT22;75967;50.970;4.574;2024-02-14T03:20:58;10.10;95.50
57078;DHT22;75967;50.970;4.574;2024-02-14T03:23:23;10.10;95.50
57078;DHT22;75967;50.970;4.574;2024-02-14T03:25:49;10.10;95.60
57078;DHT22;75967;50.970;4.574;2024-02-14T03:28:17;10.00;95.60
57078;DHT22;75967;50.970;4.574;2024-02-14T03:30:43;10.10;95.70
57078;DHT22;75967;50.970;4.574;2024-02-14T03:33:09;10.10;96.00
57078;DHT22;75967;50.970;4.574;2024-02-14T03:35:34;10.00;96.10
57078;DHT22;75967;50.970;4.574;2024-02-14T03:38:01;10.00;96.20
57078;DHT22;75967;50.970;4.574;2024-02-14T03:40:27;10.10;96.70
57078;DHT22;75967;50.970;4.574;2024-02-14T03:42:56;10.10;96.50
57078;DHT22;75967;50.970;4.574;2024-02-14T03:45:22;10.10;96.40
57078;DHT22;75967;50.970;4.574;2024-02-14T03:47:48;10.10;96.30
57078;DHT22;75967;50.970;4.574;2024-02-14T03:50:14;10.10;96.10
57078;DHT22;75967;50.970;4.574;2024-02-14T03:52:40;10.00;96.30
57078;DHT22;75967;50.970;4.574;2024-02-14T03:55:08;10.00;96.20
57078;DHT22;75967;50.970;4.574;2024-02-14T03:57:34;10.10;96.00
57078;DHT22;75967;50.970;4.574;2024-02-14T04:00:04;10.10;96.00
57078;DHT22;75967;50.970;4.574;2024-02-14T04:02:33;10.20;95.60
57078;DHT22;75967;50.970;4.574;2024-02-14T04:04:58;10.30;95.50
57078;DHT22;75967;50.970;4.574;2024-02-14T04:07:24;10.20;95.60
57078;DHT22;75967;50.970;4.574;2024-02-14T04:09:50;10.30;95.50
57078;DHT22;75967;50.970;4.574;2024-02-14T04:12:16;10.40;95.50
57078;DHT22;75967;50.970;4.574;2024-02-14T04:14:41;10.40;95.20
57078;DHT22;75967;50.970;4.574;2024-02-14T04:17:07;10.30;95.60
57078;DHT22;75967;50.970;4.574;2024-02-14T04:19:33;10.40;95.50
57078;DHT22;75967;50.970;4.574;2024-02-14T04:21:59;10.40;95.30
57078;DHT22;75967;50.970;4.574;2024-02-14T04:24:24;10.30;95.40
57078;DHT22;75967;50.970;4.574;2024-02-14T04:26:50;10.30;95.60
57078;DHT22;75967;50.970;4.574;2024-02-14T04:29:18;10.30;95.80
57078;DHT22;75967;50.970;4.574;2024-02-14T04:31:43;10.20;95.90
57078;DHT22;75967;50.970;4.574;2024-02-14T04:34:09;10.30;95.90
57078;DHT22;75967;50.970;4.574;2024-02-14T04:36:35;10.40;95.60
57078;DHT22;75967;50.970;4.574;2024-02-14T04:39:01;10.60;95.20
57078;DHT22;75967;50.970;4.574;2024-02-14T04:41:27;10.50;95.40
57078;DHT22;75967;50.970;4.574;2024-02-14T04:43:52;10.50;95.20
57078;DHT22;75967;50.970;4.574;2024-02-14T04:46:18;10.50;95.30
57078;DHT22;75967;50.970;4.574;2024-02-14T04:48:43;10.40;95.50
57078;DHT22;75967;50.970;4.574;2024-02-14T04:51:09;10.50;95.30
57078;DHT22;75967;50.970;4.574;2024-02-14T04:53:35;10.50;95.30
57078;DHT22;75967;50.970;4.574;2024-02-14T04:56:01;10.50;95.20
57078;DHT22;75967;50.970;4.574;2024-02-14T04:58:26;10.50;95.20
57078;DHT22;75967;50.970;4.574;2024-02-14T05:00:52;10.60;95.00
57078;DHT22;75967;50.970;4.574;2024-02-14T05:03:19;10.50;95.10
57078;DHT22;75967;50.970;4.574;2024-02-14T05:05:44;10.50;95.20
57078;DHT22;75967;50.970;4.574;2024-02-14T05:08:10;10.60;95.50
57078;DHT22;75967;50.970;4.574;2024-02-14T05:10:36;10.50;95.60
57078;DHT22;75967;50.970;4.574;2024-02-14T05:13:02;10.50;95.70
57078;DHT22;75967;50.970;4.574;2024-02-14T05:15:27;10.50;95.80
57078;DHT22;75967;50.970;4.574;2024-02-14T05:17:55;10.50;95.90
57078;DHT22;75967;50.970;4.574;2024-02-14T05:20:21;10.40;96.00
57078;DHT22;75967;50.970;4.574;2024-02-14T05:22:47;10.40;96.30
57078;DHT22;75967;50.970;4.574;2024-02-14T05:25:13;10.30;96.30
57078;DHT22;75967;50.970;4.574;2024-02-14T05:27:39;10.40;96.10
57078;DHT22;75967;50.970;4.574;2024-02-14T05:30:05;10.50;95.70
57078;DHT22;75967;50.970;4.574;2024-02-14T05:32:31;10.60;95.50
57078;DHT22;75967;50.970;4.574;2024-02-14T05:34:58;10.70;95.40
57078;DHT22;75967;50.970;4.574;2024-02-14T05:37:23;10.50;95.80
57078;DHT22;75967;50.970;4.574;2024-02-14T05:39:50;10.60;95.60
57078;DHT22;75967;50.970;4.574;2024-02-14T05:42:16;10.60;95.60
57078;DHT22;75967;50.970;4.574;2024-02-14T05:44:42;10.60;95.80
57078;DHT22;75967;50.970;4.574;2024-02-14T05:47:10;10.60;95.60
57078;DHT22;75967;50.970;4.574;2024-02-14T05:49:41;10.60;95.50
57078;DHT22;75967;50.970;4.574;2024-02-14T05:52:07;10.70;95.30
57078;DHT22;75967;50.970;4.574;2024-02-14T05:54:33;10.70;95.20
57078;DHT22;75967;50.970;4.574;2024-02-14T05:56:59;10.70;95.20
57078;DHT22;75967;50.970;4.574;2024-02-14T05:59:26;10.80;95.00
57078;DHT22;75967;50.970;4.574;2024-02-14T06:01:52;10.70;95.30
57078;DHT22;75967;50.970;4.574;2024-02-14T06:04:18;10.80;95.00
57078;DHT22;75967;50.970;4.574;2024-02-14T06:06:44;10.90;94.80
57078;DHT22;75967;50.970;4.574;2024-02-14T06:09:10;10.80;94.80
57078;DHT22;75967;50.970;4.574;2024-02-14T06:11:37;10.80;94.90
57078;DHT22;75967;50.970;4.574;2024-02-14T06:14:07;10.80;95.00
57078;DHT22;75967;50.970;4.574;2024-02-14T06:16:33;10.80;94.80
57078;DHT22;75967;50.970;4.574;2024-02-14T06:18:59;10.80;94.80
57078;DHT22;75967;50.970;4.574;2024-02-14T06:21:24;10.90;94.50
57078;DHT22;75967;50.970;4.574;2024-02-14T06:23:51;10.90;94.40
57078;DHT22;75967;50.970;4.574;2024-02-14T06:26:17;11.00;94.20
57078;DHT22;75967;50.970;4.574;2024-02-14T06:28:44;11.00;94.20
57078;DHT22;75967;50.970;4.574;2024-02-14T06:31:10;11.00;94.20
57078;DHT22;75967;50.970;4.574;2024-02-14T06:33:35;10.90;94.20
57078;DHT22;75967;50.970;4.574;2024-02-14T06:36:02;11.00;94.20
57078;DHT22;75967;50.970;4.574;2024-02-14T06:38:27;11.00;94.10
57078;DHT22;75967;50.970;4.574;2024-02-14T06:40:53;11.00;94.10
57078;DHT22;75967;50.970;4.574;2024-02-14T06:43:19;11.00;94.00
57078;DHT22;75967;50.970;4.574;2024-02-14T06:45:45;10.90;94.20
57078;DHT22;75967;50.970;4.574;2024-02-14T06:48:11;11.00;94.10
57078;DHT22;75967;50.970;4.574;2024-02-14T06:50:36;11.00;93.90
57078;DHT22;75967;50.970;4.574;2024-02-14T06:53:02;11.00;94.00
57078;DHT22;75967;50.970;4.574;2024-02-14T06:55:28;11.00;94.20
57078;DHT22;75967;50.970;4.574;2024-02-14T06:57:57;10.90;94.40
57078;DHT22;75967;50.970;4.574;2024-02-14T07:00:23;11.00;94.30
57078;DHT22;75967;50.970;4.574;2024-02-14T07:02:49;11.10;94.10
57078;DHT22;75967;50.970;4.574;2024-02-14T07:05:14;11.00;94.00
57078;DHT22;75967;50.970;4.574;2024-02-14T07:07:41;11.00;94.10
57078;DHT22;75967;50.970;4.574;2024-02-14T07:10:07;11.00;94.20
57078;DHT22;75967;50.970;4.574;2024-02-14T07:12:33;11.10;94.00
57078;DHT22;75967;50.970;4.574;2024-02-14T07:15:01;11.00;94.10
57078;DHT22;75967;50.970;4.574;2024-02-14T07:17:27;11.00;94.10
57078;DHT22;75967;50.970;4.574;2024-02-14T07:19:52;11.10;93.80
57078;DHT22;75967;50.970;4.574;2024-02-14T07:22:18;11.30;93.40
57078;DHT22;75967;50.970;4.574;2024-02-14T07:24:47;11.30;93.30
57078;DHT22;75967;50.970;4.574;2024-02-14T07:27:14;11.30;93.50
57078;DHT22;75967;50.970;4.574;2024-02-14T07:29:40;11.20;93.70
57078;DHT22;75967;50.970;4.574;2024-02-14T07:32:06;11.30;93.60
57078;DHT22;75967;50.970;4.574;2024-02-14T07:34:32;11.50;93.20
57078;DHT22;75967;50.970;4.574;2024-02-14T07:36:58;11.50;93.20
57078;DHT22;75967;50.970;4.574;2024-02-14T07:39:24;11.40;93.40
57078;DHT22;75967;50.970;4.574;2024-02-14T07:41:50;11.30;93.40
57078;DHT22;75967;50.970;4.574;2024-02-14T07:44:16;11.20;93.50
57078;DHT22;75967;50.970;4.574;2024-02-14T07:46:42;11.30;93.60
57078;DHT22;75967;50.970;4.574;2024-02-14T07:49:07;11.30;93.30
57078;DHT22;75967;50.970;4.574;2024-02-14T07:51:34;11.50;93.00
57078;DHT22;75967;50.970;4.574;2024-02-14T07:54:05;11.50;92.90
57078;DHT22;75967;50.970;4.574;2024-02-14T07:56:31;11.40;92.90
57078;DHT22;75967;50.970;4.574;2024-02-14T07:58:57;11.60;92.60
57078;DHT22;75967;50.970;4.574;2024-02-14T08:01:25;11.50;93.00
57078;DHT22;75967;50.970;4.574;2024-02-14T08:03:51;11.70;92.60
57078;DHT22;75967;50.970;4.574;2024-02-14T08:06:17;11.70;92.70
57078;DHT22;75967;50.970;4.574;2024-02-14T08:08:42;11.70;92.60
57078;DHT22;75967;50.970;4.574;2024-02-14T08:11:09;11.60;92.80
57078;DHT22;75967;50.970;4.574;2024-02-14T08:13:35;11.60;92.80
57078;DHT22;75967;50.970;4.574;2024-02-14T08:16:02;11.70;92.70
57078;DHT22;75967;50.970;4.574;2024-02-14T08:18:28;11.60;92.70
57078;DHT22;75967;50.970;4.574;2024-02-14T08:20:53;11.80;92.50
57078;DHT22;75967;50.970;4.574;2024-02-14T08:23:20;11.70;93.10
57078;DHT22;75967;50.970;4.574;2024-02-14T08:25:46;11.60;93.80
57078;DHT22;75967;50.970;4.574;2024-02-14T08:28:12;11.50;94.20
57078;DHT22;75967;50.970;4.574;2024-02-14T08:30:38;11.60;94.40
57078;DHT22;75967;50.970;4.574;2024-02-14T08:33:03;11.50;94.70
57078;DHT22;75967;50.970;4.574;2024-02-14T08:35:29;11.40;95.20
57078;DHT22;75967;50.970;4.574;2024-02-14T08:37:55;11.40;95.30
57078;DHT22;75967;50.970;4.574;2024-02-14T08:40:21;11.40;95.40
57078;DHT22;75967;50.970;4.574;2024-02-14T08:42:46;11.30;95.60
57078;DHT22;75967;50.970;4.574;2024-02-14T08:45:12;11.50;95.60
57078;DHT22;75967;50.970;4.574;2024-02-14T08:47:38;11.30;95.50
57078;DHT22;75967;50.970;4.574;2024-02-14T08:50:04;11.30;95.60
57078;DHT22;75967;50.970;4.574;2024-02-14T08:52:30;11.50;95.40
57078;DHT22;75967;50.970;4.574;2024-02-14T08:54:55;11.40;95.60
57078;DHT22;75967;50.970;4.574;2024-02-14T08:57:21;11.30;96.10
57078;DHT22;75967;50.970;4.574;2024-02-14T08:59:48;11.40;95.70
57078;DHT22;75967;50.970;4.574;2024-02-14T09:02:14;11.50;95.50
57078;DHT22;75967;50.970;4.574;2024-02-14T09:04:41;11.50;95.60
57078;DHT22;75967;50.970;4.574;2024-02-14T09:07:07;11.50;95.40
57078;DHT22;75967;50.970;4.574;2024-02-14T09:09:33;11.60;95.10
57078;DHT22;75967;50.970;4.574;2024-02-14T09:11:59;11.60;95.30
57078;DHT22;75967;50.970;4.574;2024-02-14T09:14:31;11.50;95.40
57078;DHT22;75967;50.970;4.574;2024-02-14T09:16:57;11.60;95.30
57078;DHT22;75967;50.970;4.574;2024-02-14T09:19:23;11.60;95.10
57078;DHT22;75967;50.970;4.574;2024-02-14T09:21:49;11.60;95.30
57078;DHT22;75967;50.970;4.574;2024-02-14T09:24:14;11.60;95.30
57078;DHT22;75967;50.970;4.574;2024-02-14T09:26:40;11.70;95.00
57078;DHT22;75967;50.970;4.574;2024-02-14T09:29:06;11.80;94.90
57078;DHT22;75967;50.970;4.574;2024-02-14T09:31:31;12.00;94.60
57078;DHT22;75967;50.970;4.574;2024-02-14T09:33:57;12.00;94.20
57078;DHT22;75967;50.970;4.574;2024-02-14T09:36:24;11.90;94.70
57078;DHT22;75967;50.970;4.574;2024-02-14T09:38:51;11.90;94.50
57078;DHT22;75967;50.970;4.574;2024-02-14T09:41:31;11.80;94.90
57078;DHT22;75967;50.970;4.574;2024-02-14T09:44:01;11.80;95.20
57078;DHT22;75967;50.970;4.574;2024-02-14T09:46:28;11.80;95.30
57078;DHT22;75967;50.970;4.574;2024-02-14T09:48:56;11.70;95.60
57078;DHT22;75967;50.970;4.574;2024-02-14T09:51:24;11.80;95.70
57078;DHT22;75967;50.970;4.574;2024-02-14T09:53:51;11.80;95.80
57078;DHT22;75967;50.970;4.574;2024-02-14T09:56:20;11.90;95.50
57078;DHT22;75967;50.970;4.574;2024-02-14T09:58:49;11.90;95.60
57078;DHT22;75967;50.970;4.574;2024-02-14T10:01:21;11.80;95.90
57078;DHT22;75967;50.970;4.574;2024-02-14T10:03:53;11.70;96.10
57078;DHT22;75967;50.970;4.574;2024-02-14T10:06:19;11.70;96.10
57078;DHT22;75967;50.970;4.574;2024-02-14T10:08:51;11.80;96.40
57078;DHT22;75967;50.970;4.574;2024-02-14T10:11:18;11.80;96.50
57078;DHT22;75967;50.970;4.574;2024-02-14T10:13:47;11.80;96.10
57078;DHT22;75967;50.970;4.574;2024-02-14T10:16:14;11.90;96.10
57078;DHT22;75967;50.970;4.574;2024-02-14T10:18:39;12.00;95.60
57078;DHT22;75967;50.970;4.574;2024-02-14T10:21:06;11.90;96.00
57078;DHT22;75967;50.970;4.574;2024-02-14T10:23:31;11.80;96.70
57078;DHT22;75967;50.970;4.574;2024-02-14T10:25:58;11.90;96.70
57078;DHT22;75967;50.970;4.574;2024-02-14T10:28:24;11.90;96.30
57078;DHT22;75967;50.970;4.574;2024-02-14T10:30:50;12.10;96.20
57078;DHT22;75967;50.970;4.574;2024-02-14T10:33:18;12.00;96.20
57078;DHT22;75967;50.970;4.574;2024-02-14T10:35:45;12.00;96.10
57078;DHT22;75967;50.970;4.574;2024-02-14T10:38:14;12.00;95.90
57078;DHT22;75967;50.970;4.574;2024-02-14T10:40:41;12.00;95.90
57078;DHT22;75967;50.970;4.574;2024-02-14T10:43:08;12.10;96.10
57078;DHT22;75967;50.970;4.574;2024-02-14T10:45:38;12.10;96.00
57078;DHT22;75967;50.970;4.574;2024-02-14T10:48:05;12.10;95.90
57078;DHT22;75967;50.970;4.574;2024-02-14T10:50:36;12.20;95.80
57078;DHT22;75967;50.970;4.574;2024-02-14T10:53:05;12.20;96.00
57078;DHT22;75967;50.970;4.574;2024-02-14T10:55:33;12.10;95.80
57078;DHT22;75967;50.970;4.574;2024-02-14T10:58:00;12.10;96.20
57078;DHT22;75967;50.970;4.574;2024-02-14T11:00:27;12.10;96.40
57078;DHT22;75967;50.970;4.574;2024-02-14T11:02:53;12.10;96.50
57078;DHT22;75967;50.970;4.574;2024-02-14T11:05:19;12.10;96.20
57078;DHT22;75967;50.970;4.574;2024-02-14T11:07:49;12.10;96.30
57078;DHT22;75967;50.970;4.574;2024-02-14T11:10:19;12.20;96.10
57078;DHT22;75967;50.970;4.574;2024-02-14T11:12:47;12.20;96.20
57078;DHT22;75967;50.970;4.574;2024-02-14T11:17:44;12.20;96.20
57078;DHT22;75967;50.970;4.574;2024-02-14T11:20:31;12.20;96.20
57078;DHT22;75967;50.970;4.574;2024-02-14T11:23:00;12.20;96.20
57078;DHT22;75967;50.970;4.574;2024-02-14T11:25:30;12.20;96.40
57078;DHT22;75967;50.970;4.574;2024-02-14T11:28:00;12.20;96.20
57078;DHT22;75967;50.970;4.574;2024-02-14T11:30:33;12.20;96.60
57078;DHT22;75967;50.970;4.574;2024-02-14T11:35:47;12.20;96.80
57078;DHT22;75967;50.970;4.574;2024-02-14T11:38:13;12.10;97.00
57078;DHT22;75967;50.970;4.574;2024-02-14T11:40:39;12.40;96.80
57078;DHT22;75967;50.970;4.574;2024-02-14T11:43:19;12.20;96.90
57078;DHT22;75967;50.970;4.574;2024-02-14T11:45:46;12.10;97.10
57078;DHT22;75967;50.970;4.574;2024-02-14T11:48:16;12.10;97.50
57078;DHT22;75967;50.970;4.574;2024-02-14T11:50:46;12.10;97.60
57078;DHT22;75967;50.970;4.574;2024-02-14T11:53:12;12.20;97.80
57078;DHT22;75967;50.970;4.574;2024-02-14T11:55:39;12.20;97.60
57078;DHT22;75967;50.970;4.574;2024-02-14T11:58:12;12.30;97.20
57078;DHT22;75967;50.970;4.574;2024-02-14T12:00:39;12.50;97.10
57078;DHT22;75967;50.970;4.574;2024-02-14T12:03:22;12.50;96.40
57078;DHT22;75967;50.970;4.574;2024-02-14T12:05:50;12.50;96.80
57078;DHT22;75967;50.970;4.574;2024-02-14T12:08:16;12.50;96.80
57078;DHT22;75967;50.970;4.574;2024-02-14T12:10:43;12.50;96.70
57078;DHT22;75967;50.970;4.574;2024-02-14T12:13:14;12.50;96.60
57078;DHT22;75967;50.970;4.574;2024-02-14T12:15:41;12.60;96.60
57078;DHT22;75967;50.970;4.574;2024-02-14T12:18:08;12.60;96.60
57078;DHT22;75967;50.970;4.574;2024-02-14T12:20:34;12.70;96.40
57078;DHT22;75967;50.970;4.574;2024-02-14T12:23:00;12.70;96.20
57078;DHT22;75967;50.970;4.574;2024-02-14T12:25:26;12.70;96.30
57078;DHT22;75967;50.970;4.574;2024-02-14T12:27:52;12.70;96.50
57078;DHT22;75967;50.970;4.574;2024-02-14T12:30:18;12.80;96.10
57078;DHT22;75967;50.970;4.574;2024-02-14T12:32:58;12.70;95.90
57078;DHT22;75967;50.970;4.574;2024-02-14T12:35:24;12.90;95.70
57078;DHT22;75967;50.970;4.574;2024-02-14T12:37:50;13.00;95.10
57078;DHT22;75967;50.970;4.574;2024-02-14T12:40:16;12.90;95.20
57078;DHT22;75967;50.970;4.574;2024-02-14T12:42:42;12.70;95.60
57078;DHT22;75967;50.970;4.574;2024-02-14T12:45:07;12.80;95.80
57078;DHT22;75967;50.970;4.574;2024-02-14T12:47:34;12.70;95.80
57078;DHT22;75967;50.970;4.574;2024-02-14T12:50:00;12.80;95.50
57078;DHT22;75967;50.970;4.574;2024-02-14T12:52:26;12.80;95.70
57078;DHT22;75967;50.970;4.574;2024-02-14T12:54:52;12.90;95.60
57078;DHT22;75967;50.970;4.574;2024-02-14T12:57:18;12.90;95.80
57078;DHT22;75967;50.970;4.574;2024-02-14T12:59:46;12.90;96.10
57078;DHT22;75967;50.970;4.574;2024-02-14T13:02:12;12.80;96.00
57078;DHT22;75967;50.970;4.574;2024-02-14T13:04:37;12.80;96.50
57078;DHT22;75967;50.970;4.574;2024-02-14T13:07:04;12.80;96.60
57078;DHT22;75967;50.970;4.574;2024-02-14T13:09:30;12.90;96.10
57078;DHT22;75967;50.970;4.574;2024-02-14T13:11:56;12.80;96.40
57078;DHT22;75967;50.970;4.574;2024-02-14T13:14:21;12.90;96.20
57078;DHT22;75967;50.970;4.574;2024-02-14T13:16:47;12.80;96.40
57078;DHT22;75967;50.970;4.574;2024-02-14T13:19:12;12.90;96.40
57078;DHT22;75967;50.970;4.574;2024-02-14T13:21:38;12.90;96.40
57078;DHT22;75967;50.970;4.574;2024-02-14T13:24:05;12.80;96.60
57078;DHT22;75967;50.970;4.574;2024-02-14T13:26:31;12.80;96.60
57078;DHT22;75967;50.970;4.574;2024-02-14T13:28:56;12.70;96.50
57078;DHT22;75967;50.970;4.574;2024-02-14T13:31:22;12.80;96.70
57078;DHT22;75967;50.970;4.574;2024-02-14T13:33:48;12.70;96.90
57078;DHT22;75967;50.970;4.574;2024-02-14T13:36:13;12.70;97.00
57078;DHT22;75967;50.970;4.574;2024-02-14T13:38:42;12.80;97.10
57078;DHT22;75967;50.970;4.574;2024-02-14T13:41:09;12.70;97.00
57078;DHT22;75967;50.970;4.574;2024-02-14T13:43:36;12.70;97.00
57078;DHT22;75967;50.970;4.574;2024-02-14T13:46:02;12.70;97.30
57078;DHT22;75967;50.970;4.574;2024-02-14T13:48:28;12.60;97.60
57078;DHT22;75967;50.970;4.574;2024-02-14T13:50:53;12.70;97.50
57078;DHT22;75967;50.970;4.574;2024-02-14T13:53:20;12.80;97.00
57078;DHT22;75967;50.970;4.574;2024-02-14T13:55:48;12.80;97.00
57078;DHT22;75967;50.970;4.574;2024-02-14T13:58:14;12.90;97.00
57078;DHT22;75967;50.970;4.574;2024-02-14T14:00:42;12.90;96.80
57078;DHT22;75967;50.970;4.574;2024-02-14T14:03:08;12.80;97.00
57078;DHT22;75967;50.970;4.574;2024-02-14T14:05:34;12.90;96.90
57078;DHT22;75967;50.970;4.574;2024-02-14T14:07:59;12.90;96.90
57078;DHT22;75967;50.970;4.574;2024-02-14T14:10:26;12.90;97.10
57078;DHT22;75967;50.970;4.574;2024-02-14T14:12:53;12.90;96.90
57078;DHT22;75967;50.970;4.574;2024-02-14T14:15:18;12.80;97.30
57078;DHT22;75967;50.970;4.574;2024-02-14T14:17:44;12.80;97.30
57078;DHT22;75967;50.970;4.574;2024-02-14T14:20:10;12.90;97.30
57078;DHT22;75967;50.970;4.574;2024-02-14T14:22:36;12.90;97.30
57078;DHT22;75967;50.970;4.574;2024-02-14T14:25:06;13.00;97.30
57078;DHT22;75967;50.970;4.574;2024-02-14T14:27:33;12.90;97.00
57078;DHT22;75967;50.970;4.574;2024-02-14T14:29:59;13.00;96.80
57078;DHT22;75967;50.970;4.574;2024-02-14T14:32:25;13.00;97.00
57078;DHT22;75967;50.970;4.574;2024-02-14T14:34:50;13.00;96.70
57078;DHT22;75967;50.970;4.574;2024-02-14T14:37:16;12.90;97.00
57078;DHT22;75967;50.970;4.574;2024-02-14T14:39:41;12.90;97.20
57078;DHT22;75967;50.970;4.574;2024-02-14T14:42:09;13.00;97.10
57078;DHT22;75967;50.970;4.574;2024-02-14T14:44:35;13.00;96.70
57078;DHT22;75967;50.970;4.574;2024-02-14T14:47:01;13.10;96.50
57078;DHT22;75967;50.970;4.574;2024-02-14T14:49:27;13.10;96.80
57078;DHT22;75967;50.970;4.574;2024-02-14T14:51:53;13.10;96.60
57078;DHT22;75967;50.970;4.574;2024-02-14T14:54:19;13.20;96.40
57078;DHT22;75967;50.970;4.574;2024-02-14T14:56:45;13.20;96.50
57078;DHT22;75967;50.970;4.574;2024-02-14T14:59:11;13.30;96.50
57078;DHT22;75967;50.970;4.574;2024-02-14T15:01:37;13.20;96.50
57078;DHT22;75967;50.970;4.574;2024-02-14T15:04:03;13.20;96.70
57078;DHT22;75967;50.970;4.574;2024-02-14T15:06:29;13.20;96.70
57078;DHT22;75967;50.970;4.574;2024-02-14T15:08:56;13.40;96.30
57078;DHT22;75967;50.970;4.574;2024-02-14T15:11:21;13.30;96.40
57078;DHT22;75967;50.970;4.574;2024-02-14T15:13:47;13.40;96.20
57078;DHT22;75967;50.970;4.574;2024-02-14T15:16:13;13.40;96.00
57078;DHT22;75967;50.970;4.574;2024-02-14T15:18:42;13.40;95.90
57078;DHT22;75967;50.970;4.574;2024-02-14T15:21:09;13.40;96.00
57078;DHT22;75967;50.970;4.574;2024-02-14T15:23:35;13.40;95.70
57078;DHT22;75967;50.970;4.574;2024-02-14T15:26:01;13.30;95.90
57078;DHT22;75967;50.970;4.574;2024-02-14T15:28:32;13.30;96.50
57078;DHT22;75967;50.970;4.574;2024-02-14T15:31:06;13.20;96.10